Airfield :
LOGIN :

Register | Disclaimer

   EN    FR    IT 

 










Legend :    VFR   Marginal VFR   IFR   Intensive IFR   Very Intensive IFR
Visi :
Ceiling :
>= 8 km
>= 3000ft
5 to 8 km
1000 to 3000 ft
1500m to 5 km
500 to 1000 ft
800 to 1500m
200 to 500 ft
< 800m
< 200 ft
Symbols :   Thunderstorms  Fog  Heavy snow  Heavy precipitations  Wind > 20 kt
SIGMETs :     Misc.  Thunderstorms  Icing  Turbulence  Mountain Waves  Volcanic Ashes






- Airport Elevation : 202 ft
- IATA code : LGW


EGKK - London Gatwick

CURRENT METAR :
  • 160020Z VRB03KT 9999 FEW019 SCT027 11/10 Q1005

EXPIRED METARs :
  • 152350Z VRB03KT 9999 -RA FEW020 BKN032 10/10 Q1005
  • 152320Z VRB02KT CAVOK 10/09 Q1006
  • 152250Z 16003KT 9999 FEW026 10/09 Q1006
  • 152220Z 15003KT 9999 FEW026 10/10 Q1006
  • 152150Z 17003KT CAVOK 10/10 Q1006

TAF TAF EGKK
Valid from the 16 at 00:00 until the 17 at 06:00 UTC


152257Z 1600/1706 16009KT 9999 FEW025
BECMG 1601/1604 BKN012
TEMPO 1601/1608 7000 RA
PROB40
TEMPO 1602/1608 3500 RADZ BKN005
PROB30
TEMPO 1602/1608 17015G25KT
BECMG 1607/1610 25010KT FEW015
BECMG 1621/1624 18005KT



MET'MAP, your aeronautical weather chart ! - Copyright ORBIFLY December 2007 - Disclaimer

ORBIFLY MET'MAP TEAM :

Programming & Development : Alexandra Zaïnal
Concept & Development : Baudouin d'Aumeries
Co-Development & Prog : Marc-Olivier Méhu
Technical & hardware support : Manuel Goepfert

Contact : metmap@orbifly.com




SOURCES & CREDITS :

   NOAA